Grenada, California
Current Conditions -  °F | °C
As of 5:53 PM on Sunday 21 Dec 2014 (Local Time) from KSIY Reporting Station
Clear Clear  
Wind Chill: 55°   Ceiling: Unl
Heat Index: 55°   Visibility: 10mi
Dew Point: 47°   Wind: 14mph
Humidity: 74%   Direction: 260°W
Pressure: 30.25"   Gusts: NA
Location:  41.65°N, 122.52°W
Report Text: KSIY 220153Z AUTO 26012KT 10SM CLR 13/08 A3025 RMK AO2 SLP253 T01280083
Loading
Personal Weather Stations






























Interactive Weather Map New forecast layout! Learn more

10-Day Weather Forecast

Advertisements
Track Severe Weather on mobile